Main page
METAR-TAF:

METAR-TAF

Airports :

Paya Lebar Air Base

Singapore, Singapore

latitude: 01-22N, longitude: 103-55E, elevation: 18 m

Current weather observation

The report was made 47 minutes ago, at 19:00 UTC
Calm wind
Temperature 27°C
Humidity 89%
Pressure 1007 hPa
Visibility 10 km or more
Few clouds at a height of 1800 ft
Broken clouds at a height of 30000 ft

METAR: WSAP 221900Z 00000KT 9999 FEW018 BKN300 27/25 Q1007

Time: 03:47 (19:47 UTC)

Forecast

The report was made 2 hours and 47 minutes ago, at 17:00 UTC
Forecast valid from 22 at 18 UTC to 24 at 00 UTC
Wind 7 kt from the South
Visibility 10 km or more
Few clouds at a height of 1800 ft, Cumulonimbus.
Scattered clouds at a height of 2000 ft
Temporary
from 23 at 00 UTC to 23 at 05 UTC
Visibility: 3000 m
Few clouds at a height of 1200 ft, Cumulonimbus.
Broken clouds at a height of 1500 ft
thunderstorm, rain

TAF: WSAP 221700Z 2218/2400 18007KT 9999 FEW018CB SCT020 TEMPO 2300/2305 3000 TSRA FEW012CB BKN015

Weather observations and forecasts of more than 4000 airports (METAR and TAF reports).

The available stations are represented by yellow and red dots on the map.

Hover mouse over dot to see the name of the station.

Then click to see weather observations and forecasts.

To change the map : click on the green buttons with a black cross to zoom in, on the green button with a dash to zoom out, or on the green arrows for adjacent maps.


METAR-TAF: